sensor_id;sensor_type;location;lat;lon;timestamp;P1;durP1;ratioP1;P2;durP2;ratioP2
39948;SDS011;29070;48.102;-1.652;2023-04-25T00:00:04;8.30;;;2.47;;
39948;SDS011;29070;48.102;-1.652;2023-04-25T00:05:07;11.90;;;2.85;;
39948;SDS011;29070;48.102;-1.652;2023-04-25T00:10:08;7.88;;;2.25;;
39948;SDS011;29070;48.102;-1.652;2023-04-25T00:15:09;10.32;;;2.75;;
39948;SDS011;29070;48.102;-1.652;2023-04-25T00:20:11;11.77;;;2.72;;
39948;SDS011;29070;48.102;-1.652;2023-04-25T00:25:11;13.77;;;2.72;;
39948;SDS011;29070;48.102;-1.652;2023-04-25T00:30:12;11.47;;;3.20;;
39948;SDS011;29070;48.102;-1.652;2023-04-25T00:35:13;11.88;;;3.25;;
39948;SDS011;29070;48.102;-1.652;2023-04-25T00:40:13;9.03;;;3.17;;
39948;SDS011;29070;48.102;-1.652;2023-04-25T00:45:14;9.10;;;2.20;;
39948;SDS011;29070;48.102;-1.652;2023-04-25T00:50:15;15.98;;;2.63;;
39948;SDS011;29070;48.102;-1.652;2023-04-25T00:55:15;5.90;;;2.38;;
39948;SDS011;29070;48.102;-1.652;2023-04-25T01:00:16;6.90;;;2.92;;
39948;SDS011;29070;48.102;-1.652;2023-04-25T01:05:17;8.50;;;2.80;;
39948;SDS011;29070;48.102;-1.652;2023-04-25T01:10:19;11.68;;;2.80;;
39948;SDS011;29070;48.102;-1.652;2023-04-25T01:15:19;3.22;;;2.10;;
39948;SDS011;29070;48.102;-1.652;2023-04-25T01:20:20;9.95;;;2.50;;
39948;SDS011;29070;48.102;-1.652;2023-04-25T01:25:22;7.50;;;3.00;;
39948;SDS011;29070;48.102;-1.652;2023-04-25T01:30:24;13.07;;;3.15;;
39948;SDS011;29070;48.102;-1.652;2023-04-25T01:35:26;11.52;;;2.72;;
39948;SDS011;29070;48.102;-1.652;2023-04-25T01:40:26;6.15;;;2.33;;
39948;SDS011;29070;48.102;-1.652;2023-04-25T01:45:27;8.68;;;2.78;;
39948;SDS011;29070;48.102;-1.652;2023-04-25T01:50:28;5.82;;;2.35;;
39948;SDS011;29070;48.102;-1.652;2023-04-25T01:55:29;9.93;;;2.50;;
39948;SDS011;29070;48.102;-1.652;2023-04-25T02:00:29;8.90;;;2.63;;
39948;SDS011;29070;48.102;-1.652;2023-04-25T02:05:36;8.48;;;3.30;;
39948;SDS011;29070;48.102;-1.652;2023-04-25T02:10:38;6.85;;;2.78;;
39948;SDS011;29070;48.102;-1.652;2023-04-25T02:15:38;9.65;;;2.92;;
39948;SDS011;29070;48.102;-1.652;2023-04-25T02:20:38;6.60;;;2.60;;
39948;SDS011;29070;48.102;-1.652;2023-04-25T02:25:39;11.80;;;2.53;;
39948;SDS011;29070;48.102;-1.652;2023-04-25T02:30:39;11.50;;;2.92;;
39948;SDS011;29070;48.102;-1.652;2023-04-25T02:35:40;9.87;;;2.70;;
39948;SDS011;29070;48.102;-1.652;2023-04-25T02:40:40;12.60;;;2.83;;
39948;SDS011;29070;48.102;-1.652;2023-04-25T02:45:41;7.13;;;2.55;;
39948;SDS011;29070;48.102;-1.652;2023-04-25T02:50:41;6.75;;;3.00;;
39948;SDS011;29070;48.102;-1.652;2023-04-25T02:55:42;11.65;;;2.83;;
39948;SDS011;29070;48.102;-1.652;2023-04-25T03:00:42;12.33;;;3.17;;
39948;SDS011;29070;48.102;-1.652;2023-04-25T03:05:43;9.53;;;3.03;;
39948;SDS011;29070;48.102;-1.652;2023-04-25T03:10:44;9.35;;;2.95;;
39948;SDS011;29070;48.102;-1.652;2023-04-25T03:15:44;10.27;;;3.05;;
39948;SDS011;29070;48.102;-1.652;2023-04-25T03:20:45;10.67;;;2.50;;
39948;SDS011;29070;48.102;-1.652;2023-04-25T03:25:46;11.18;;;2.47;;
39948;SDS011;29070;48.102;-1.652;2023-04-25T03:30:47;7.03;;;3.22;;
39948;SDS011;29070;48.102;-1.652;2023-04-25T03:35:47;8.20;;;3.10;;
39948;SDS011;29070;48.102;-1.652;2023-04-25T03:40:47;7.68;;;2.50;;
39948;SDS011;29070;48.102;-1.652;2023-04-25T03:45:48;9.47;;;3.73;;
39948;SDS011;29070;48.102;-1.652;2023-04-25T03:50:48;10.02;;;2.78;;
39948;SDS011;29070;48.102;-1.652;2023-04-25T03:55:48;13.27;;;3.47;;
39948;SDS011;29070;48.102;-1.652;2023-04-25T04:00:49;11.02;;;3.00;;
39948;SDS011;29070;48.102;-1.652;2023-04-25T04:05:50;9.52;;;2.90;;
39948;SDS011;29070;48.102;-1.652;2023-04-25T04:10:50;8.88;;;3.00;;
39948;SDS011;29070;48.102;-1.652;2023-04-25T04:15:50;7.43;;;2.87;;
39948;SDS011;29070;48.102;-1.652;2023-04-25T04:20:51;10.67;;;3.00;;
39948;SDS011;29070;48.102;-1.652;2023-04-25T04:25:51;11.23;;;2.63;;
39948;SDS011;29070;48.102;-1.652;2023-04-25T04:30:52;11.15;;;2.90;;
39948;SDS011;29070;48.102;-1.652;2023-04-25T04:35:52;9.93;;;2.73;;
39948;SDS011;29070;48.102;-1.652;2023-04-25T04:40:53;10.32;;;3.92;;
39948;SDS011;29070;48.102;-1.652;2023-04-25T04:45:53;8.45;;;3.20;;
39948;SDS011;29070;48.102;-1.652;2023-04-25T04:50:56;14.27;;;3.47;;
39948;SDS011;29070;48.102;-1.652;2023-04-25T04:55:56;11.87;;;3.23;;
39948;SDS011;29070;48.102;-1.652;2023-04-25T05:00:56;12.00;;;3.28;;
39948;SDS011;29070;48.102;-1.652;2023-04-25T05:05:57;13.43;;;3.00;;
39948;SDS011;29070;48.102;-1.652;2023-04-25T05:10:57;14.47;;;3.10;;
39948;SDS011;29070;48.102;-1.652;2023-04-25T05:15:57;13.67;;;3.53;;
39948;SDS011;29070;48.102;-1.652;2023-04-25T05:20:58;10.90;;;3.28;;
39948;SDS011;29070;48.102;-1.652;2023-04-25T05:25:59;11.10;;;3.17;;
39948;SDS011;29070;48.102;-1.652;2023-04-25T05:30:59;9.98;;;3.17;;
39948;SDS011;29070;48.102;-1.652;2023-04-25T05:36:00;10.45;;;3.38;;
39948;SDS011;29070;48.102;-1.652;2023-04-25T05:41:00;10.23;;;4.15;;
39948;SDS011;29070;48.102;-1.652;2023-04-25T05:46:01;7.97;;;3.20;;
39948;SDS011;29070;48.102;-1.652;2023-04-25T05:51:01;7.35;;;3.22;;
39948;SDS011;29070;48.102;-1.652;2023-04-25T05:56:02;8.47;;;4.03;;
39948;SDS011;29070;48.102;-1.652;2023-04-25T06:01:02;13.95;;;3.70;;
39948;SDS011;29070;48.102;-1.652;2023-04-25T06:06:03;9.90;;;3.35;;
39948;SDS011;29070;48.102;-1.652;2023-04-25T06:11:03;8.30;;;3.47;;
39948;SDS011;29070;48.102;-1.652;2023-04-25T06:16:04;10.88;;;3.53;;
39948;SDS011;29070;48.102;-1.652;2023-04-25T06:21:05;5.68;;;3.55;;
39948;SDS011;29070;48.102;-1.652;2023-04-25T06:26:05;9.07;;;3.97;;
39948;SDS011;29070;48.102;-1.652;2023-04-25T06:31:06;13.00;;;3.73;;
39948;SDS011;29070;48.102;-1.652;2023-04-25T06:36:06;9.88;;;3.78;;
39948;SDS011;29070;48.102;-1.652;2023-04-25T06:41:07;8.45;;;3.47;;
39948;SDS011;29070;48.102;-1.652;2023-04-25T06:46:07;10.47;;;4.17;;
39948;SDS011;29070;48.102;-1.652;2023-04-25T06:51:07;7.63;;;3.27;;
39948;SDS011;29070;48.102;-1.652;2023-04-25T06:56:08;6.80;;;4.10;;
39948;SDS011;29070;48.102;-1.652;2023-04-25T07:01:09;10.52;;;3.78;;
39948;SDS011;29070;48.102;-1.652;2023-04-25T07:06:09;11.30;;;4.53;;
39948;SDS011;29070;48.102;-1.652;2023-04-25T07:11:10;19.03;;;5.73;;
39948;SDS011;29070;48.102;-1.652;2023-04-25T07:16:10;13.30;;;4.07;;
39948;SDS011;29070;48.102;-1.652;2023-04-25T07:21:10;11.87;;;4.50;;
39948;SDS011;29070;48.102;-1.652;2023-04-25T07:26:11;12.53;;;3.83;;
39948;SDS011;29070;48.102;-1.652;2023-04-25T07:31:11;9.30;;;3.80;;
39948;SDS011;29070;48.102;-1.652;2023-04-25T07:36:12;8.77;;;4.00;;
39948;SDS011;29070;48.102;-1.652;2023-04-25T07:41:13;10.18;;;4.00;;
39948;SDS011;29070;48.102;-1.652;2023-04-25T07:46:13;7.70;;;4.10;;
39948;SDS011;29070;48.102;-1.652;2023-04-25T07:51:13;15.03;;;5.07;;
39948;SDS011;29070;48.102;-1.652;2023-04-25T07:56:14;13.53;;;4.33;;
39948;SDS011;29070;48.102;-1.652;2023-04-25T08:01:14;8.55;;;3.85;;
39948;SDS011;29070;48.102;-1.652;2023-04-25T08:06:15;7.17;;;3.63;;
39948;SDS011;29070;48.102;-1.652;2023-04-25T08:11:15;8.30;;;3.40;;
39948;SDS011;29070;48.102;-1.652;2023-04-25T08:16:15;7.77;;;3.27;;
39948;SDS011;29070;48.102;-1.652;2023-04-25T08:21:16;5.07;;;2.73;;
39948;SDS011;29070;48.102;-1.652;2023-04-25T08:26:16;7.78;;;2.58;;
39948;SDS011;29070;48.102;-1.652;2023-04-25T08:31:17;5.70;;;2.80;;
39948;SDS011;29070;48.102;-1.652;2023-04-25T08:36:17;7.60;;;3.47;;
39948;SDS011;29070;48.102;-1.652;2023-04-25T08:41:18;4.07;;;2.92;;
39948;SDS011;29070;48.102;-1.652;2023-04-25T08:46:21;7.38;;;3.35;;
39948;SDS011;29070;48.102;-1.652;2023-04-25T08:51:23;7.82;;;2.80;;
39948;SDS011;29070;48.102;-1.652;2023-04-25T08:56:25;7.15;;;3.10;;
39948;SDS011;29070;48.102;-1.652;2023-04-25T09:01:26;4.95;;;2.42;;
39948;SDS011;29070;48.102;-1.652;2023-04-25T09:06:28;4.15;;;2.42;;
39948;SDS011;29070;48.102;-1.652;2023-04-25T09:11:32;5.63;;;2.20;;
39948;SDS011;29070;48.102;-1.652;2023-04-25T09:16:33;8.93;;;2.67;;
39948;SDS011;29070;48.102;-1.652;2023-04-25T09:21:33;4.47;;;2.50;;
39948;SDS011;29070;48.102;-1.652;2023-04-25T09:26:34;7.75;;;3.13;;
39948;SDS011;29070;48.102;-1.652;2023-04-25T09:31:35;9.43;;;2.53;;
39948;SDS011;29070;48.102;-1.652;2023-04-25T09:36:35;5.73;;;2.87;;
39948;SDS011;29070;48.102;-1.652;2023-04-25T09:41:37;6.57;;;2.73;;
39948;SDS011;29070;48.102;-1.652;2023-04-25T09:46:37;5.93;;;3.17;;
39948;SDS011;29070;48.102;-1.652;2023-04-25T09:51:38;4.47;;;2.57;;
39948;SDS011;29070;48.102;-1.652;2023-04-25T09:56:38;9.57;;;2.97;;
39948;SDS011;29070;48.102;-1.652;2023-04-25T10:01:39;5.10;;;2.28;;
39948;SDS011;29070;48.102;-1.652;2023-04-25T10:06:41;3.80;;;1.95;;
39948;SDS011;29070;48.102;-1.652;2023-04-25T10:11:43;4.15;;;2.88;;
39948;SDS011;29070;48.102;-1.652;2023-04-25T10:16:46;5.85;;;2.92;;
39948;SDS011;29070;48.102;-1.652;2023-04-25T10:21:55;7.93;;;2.80;;
39948;SDS011;29070;48.102;-1.652;2023-04-25T10:32:04;3.47;;;2.45;;
39948;SDS011;29070;48.102;-1.652;2023-04-25T10:37:04;4.65;;;2.10;;
39948;SDS011;29070;48.102;-1.652;2023-04-25T10:42:05;2.83;;;2.08;;
39948;SDS011;29070;48.102;-1.652;2023-04-25T10:47:07;5.13;;;2.22;;
39948;SDS011;29070;48.102;-1.652;2023-04-25T10:57:29;5.65;;;2.65;;
39948;SDS011;29070;48.102;-1.652;2023-04-25T11:02:42;5.35;;;2.20;;
39948;SDS011;29070;48.102;-1.652;2023-04-25T11:07:51;8.82;;;2.58;;
39948;SDS011;29070;48.102;-1.652;2023-04-25T11:12:54;4.00;;;1.70;;
39948;SDS011;29070;48.102;-1.652;2023-04-25T11:17:55;5.97;;;1.33;;
39948;SDS011;29070;48.102;-1.652;2023-04-25T11:22:57;5.68;;;2.05;;
39948;SDS011;29070;48.102;-1.652;2023-04-25T11:27:59;2.28;;;1.30;;
39948;SDS011;29070;48.102;-1.652;2023-04-25T11:33:01;3.65;;;2.00;;
39948;SDS011;29070;48.102;-1.652;2023-04-25T11:38:03;4.75;;;2.08;;
39948;SDS011;29070;48.102;-1.652;2023-04-25T11:43:04;4.32;;;2.33;;
39948;SDS011;29070;48.102;-1.652;2023-04-25T11:48:04;4.40;;;2.22;;
39948;SDS011;29070;48.102;-1.652;2023-04-25T11:53:05;6.30;;;1.90;;
39948;SDS011;29070;48.102;-1.652;2023-04-25T11:58:06;4.85;;;2.40;;
39948;SDS011;29070;48.102;-1.652;2023-04-25T12:03:08;4.90;;;2.20;;
39948;SDS011;29070;48.102;-1.652;2023-04-25T12:08:13;5.38;;;2.30;;
39948;SDS011;29070;48.102;-1.652;2023-04-25T12:13:25;4.40;;;1.88;;
39948;SDS011;29070;48.102;-1.652;2023-04-25T12:18:26;6.35;;;2.03;;
39948;SDS011;29070;48.102;-1.652;2023-04-25T12:23:28;3.45;;;1.55;;
39948;SDS011;29070;48.102;-1.652;2023-04-25T12:28:28;4.20;;;1.58;;
39948;SDS011;29070;48.102;-1.652;2023-04-25T12:33:36;3.20;;;1.77;;
39948;SDS011;29070;48.102;-1.652;2023-04-25T12:38:39;2.40;;;1.43;;
39948;SDS011;29070;48.102;-1.652;2023-04-25T12:43:40;5.53;;;2.15;;
39948;SDS011;29070;48.102;-1.652;2023-04-25T12:48:41;5.40;;;2.35;;
39948;SDS011;29070;48.102;-1.652;2023-04-25T12:53:42;5.63;;;2.15;;
39948;SDS011;29070;48.102;-1.652;2023-04-25T12:58:42;4.70;;;2.47;;
39948;SDS011;29070;48.102;-1.652;2023-04-25T13:03:44;6.20;;;2.65;;
39948;SDS011;29070;48.102;-1.652;2023-04-25T13:08:44;5.60;;;2.60;;
39948;SDS011;29070;48.102;-1.652;2023-04-25T13:13:45;3.33;;;1.98;;
39948;SDS011;29070;48.102;-1.652;2023-04-25T13:18:45;4.93;;;2.53;;
39948;SDS011;29070;48.102;-1.652;2023-04-25T13:23:45;5.03;;;2.47;;
39948;SDS011;29070;48.102;-1.652;2023-04-25T13:28:46;7.38;;;3.05;;
39948;SDS011;29070;48.102;-1.652;2023-04-25T13:33:47;6.43;;;2.42;;
39948;SDS011;29070;48.102;-1.652;2023-04-25T13:38:47;4.83;;;2.13;;
39948;SDS011;29070;48.102;-1.652;2023-04-25T13:43:49;4.95;;;2.17;;
39948;SDS011;29070;48.102;-1.652;2023-04-25T13:48:49;8.90;;;3.10;;
39948;SDS011;29070;48.102;-1.652;2023-04-25T13:53:50;5.70;;;2.33;;
39948;SDS011;29070;48.102;-1.652;2023-04-25T13:58:50;4.53;;;2.30;;
39948;SDS011;29070;48.102;-1.652;2023-04-25T14:03:51;5.15;;;2.10;;
39948;SDS011;29070;48.102;-1.652;2023-04-25T14:08:52;6.03;;;2.23;;
39948;SDS011;29070;48.102;-1.652;2023-04-25T14:13:53;6.25;;;2.20;;
39948;SDS011;29070;48.102;-1.652;2023-04-25T14:18:53;4.57;;;1.90;;
39948;SDS011;29070;48.102;-1.652;2023-04-25T14:23:54;5.47;;;2.33;;
39948;SDS011;29070;48.102;-1.652;2023-04-25T14:28:55;6.22;;;2.78;;
39948;SDS011;29070;48.102;-1.652;2023-04-25T14:33:55;5.33;;;2.07;;
39948;SDS011;29070;48.102;-1.652;2023-04-25T14:38:55;4.10;;;1.90;;
39948;SDS011;29070;48.102;-1.652;2023-04-25T14:43:56;5.43;;;2.35;;
39948;SDS011;29070;48.102;-1.652;2023-04-25T14:48:57;2.33;;;1.40;;
39948;SDS011;29070;48.102;-1.652;2023-04-25T14:53:57;2.92;;;1.80;;
39948;SDS011;29070;48.102;-1.652;2023-04-25T14:58:58;3.25;;;1.88;;
39948;SDS011;29070;48.102;-1.652;2023-04-25T15:03:58;4.87;;;1.73;;
39948;SDS011;29070;48.102;-1.652;2023-04-25T15:08:58;3.43;;;1.70;;
39948;SDS011;29070;48.102;-1.652;2023-04-25T15:13:59;6.75;;;2.00;;
39948;SDS011;29070;48.102;-1.652;2023-04-25T15:18:59;4.80;;;1.77;;
39948;SDS011;29070;48.102;-1.652;2023-04-25T15:24:02;4.22;;;1.23;;
39948;SDS011;29070;48.102;-1.652;2023-04-25T15:29:03;4.75;;;2.00;;
39948;SDS011;29070;48.102;-1.652;2023-04-25T15:34:05;3.95;;;1.67;;
39948;SDS011;29070;48.102;-1.652;2023-04-25T15:39:06;4.00;;;1.88;;
39948;SDS011;29070;48.102;-1.652;2023-04-25T15:44:06;4.53;;;1.77;;
39948;SDS011;29070;48.102;-1.652;2023-04-25T15:49:07;3.70;;;1.85;;
39948;SDS011;29070;48.102;-1.652;2023-04-25T15:54:08;5.00;;;2.17;;
39948;SDS011;29070;48.102;-1.652;2023-04-25T15:59:09;4.57;;;2.13;;
39948;SDS011;29070;48.102;-1.652;2023-04-25T16:04:10;5.95;;;2.47;;
39948;SDS011;29070;48.102;-1.652;2023-04-25T16:09:10;5.68;;;2.40;;
39948;SDS011;29070;48.102;-1.652;2023-04-25T16:14:11;4.23;;;1.93;;
39948;SDS011;29070;48.102;-1.652;2023-04-25T16:19:11;6.53;;;2.33;;
39948;SDS011;29070;48.102;-1.652;2023-04-25T16:24:11;3.43;;;1.83;;
39948;SDS011;29070;48.102;-1.652;2023-04-25T16:29:12;4.40;;;1.98;;
39948;SDS011;29070;48.102;-1.652;2023-04-25T16:34:14;4.82;;;2.10;;
39948;SDS011;29070;48.102;-1.652;2023-04-25T16:39:14;3.77;;;2.00;;
39948;SDS011;29070;48.102;-1.652;2023-04-25T16:44:15;3.92;;;1.75;;
39948;SDS011;29070;48.102;-1.652;2023-04-25T16:49:16;2.53;;;1.83;;
39948;SDS011;29070;48.102;-1.652;2023-04-25T16:54:16;4.20;;;2.20;;
39948;SDS011;29070;48.102;-1.652;2023-04-25T16:59:17;4.40;;;1.57;;
39948;SDS011;29070;48.102;-1.652;2023-04-25T17:04:18;3.25;;;1.48;;
39948;SDS011;29070;48.102;-1.652;2023-04-25T17:09:18;5.20;;;1.70;;
39948;SDS011;29070;48.102;-1.652;2023-04-25T17:14:19;5.17;;;1.97;;
39948;SDS011;29070;48.102;-1.652;2023-04-25T17:19:19;3.97;;;1.67;;
39948;SDS011;29070;48.102;-1.652;2023-04-25T17:24:20;4.15;;;1.70;;
39948;SDS011;29070;48.102;-1.652;2023-04-25T17:29:20;4.73;;;1.70;;
39948;SDS011;29070;48.102;-1.652;2023-04-25T17:34:22;3.90;;;1.55;;
39948;SDS011;29070;48.102;-1.652;2023-04-25T17:39:23;7.00;;;1.80;;
39948;SDS011;29070;48.102;-1.652;2023-04-25T17:44:24;3.00;;;1.63;;
39948;SDS011;29070;48.102;-1.652;2023-04-25T17:49:25;3.58;;;1.60;;
39948;SDS011;29070;48.102;-1.652;2023-04-25T17:54:25;2.60;;;1.58;;
39948;SDS011;29070;48.102;-1.652;2023-04-25T17:59:26;3.40;;;1.73;;
39948;SDS011;29070;48.102;-1.652;2023-04-25T18:04:27;6.70;;;2.37;;
39948;SDS011;29070;48.102;-1.652;2023-04-25T18:09:27;5.38;;;1.52;;
39948;SDS011;29070;48.102;-1.652;2023-04-25T18:14:29;4.47;;;1.90;;
39948;SDS011;29070;48.102;-1.652;2023-04-25T18:19:29;5.13;;;2.00;;
39948;SDS011;29070;48.102;-1.652;2023-04-25T18:24:30;5.63;;;1.80;;
39948;SDS011;29070;48.102;-1.652;2023-04-25T18:29:31;4.35;;;2.20;;
39948;SDS011;29070;48.102;-1.652;2023-04-25T18:34:31;7.23;;;3.13;;
39948;SDS011;29070;48.102;-1.652;2023-04-25T18:39:32;6.50;;;3.00;;
39948;SDS011;29070;48.102;-1.652;2023-04-25T18:44:32;3.20;;;2.00;;
39948;SDS011;29070;48.102;-1.652;2023-04-25T18:49:35;5.00;;;2.40;;
39948;SDS011;29070;48.102;-1.652;2023-04-25T18:54:36;3.47;;;2.28;;
39948;SDS011;29070;48.102;-1.652;2023-04-25T18:59:37;6.63;;;2.60;;
39948;SDS011;29070;48.102;-1.652;2023-04-25T19:04:38;4.57;;;2.20;;
39948;SDS011;29070;48.102;-1.652;2023-04-25T19:09:38;6.67;;;2.50;;
39948;SDS011;29070;48.102;-1.652;2023-04-25T19:14:38;5.43;;;2.43;;
39948;SDS011;29070;48.102;-1.652;2023-04-25T19:19:39;6.87;;;2.93;;
39948;SDS011;29070;48.102;-1.652;2023-04-25T19:24:39;6.07;;;2.90;;
39948;SDS011;29070;48.102;-1.652;2023-04-25T19:29:40;5.20;;;2.57;;
39948;SDS011;29070;48.102;-1.652;2023-04-25T19:34:44;5.40;;;2.63;;
39948;SDS011;29070;48.102;-1.652;2023-04-25T19:39:45;4.90;;;2.55;;
39948;SDS011;29070;48.102;-1.652;2023-04-25T19:44:46;4.82;;;2.95;;
39948;SDS011;29070;48.102;-1.652;2023-04-25T19:49:47;5.10;;;2.60;;
39948;SDS011;29070;48.102;-1.652;2023-04-25T19:54:47;5.97;;;3.20;;
39948;SDS011;29070;48.102;-1.652;2023-04-25T19:59:47;7.20;;;2.90;;
39948;SDS011;29070;48.102;-1.652;2023-04-25T20:04:48;8.80;;;2.53;;
39948;SDS011;29070;48.102;-1.652;2023-04-25T20:09:49;4.60;;;2.20;;
39948;SDS011;29070;48.102;-1.652;2023-04-25T20:14:49;4.37;;;2.63;;
39948;SDS011;29070;48.102;-1.652;2023-04-25T20:19:49;7.27;;;3.13;;
39948;SDS011;29070;48.102;-1.652;2023-04-25T20:24:51;5.20;;;2.72;;
39948;SDS011;29070;48.102;-1.652;2023-04-25T20:29:52;6.20;;;2.90;;
39948;SDS011;29070;48.102;-1.652;2023-04-25T20:34:52;6.30;;;2.60;;
39948;SDS011;29070;48.102;-1.652;2023-04-25T20:39:52;5.23;;;2.37;;
39948;SDS011;29070;48.102;-1.652;2023-04-25T20:44:53;4.30;;;2.30;;
39948;SDS011;29070;48.102;-1.652;2023-04-25T20:49:53;4.20;;;2.40;;
39948;SDS011;29070;48.102;-1.652;2023-04-25T20:54:54;9.20;;;2.13;;
39948;SDS011;29070;48.102;-1.652;2023-04-25T20:59:54;3.72;;;2.28;;
39948;SDS011;29070;48.102;-1.652;2023-04-25T21:04:56;3.55;;;1.90;;
39948;SDS011;29070;48.102;-1.652;2023-04-25T21:09:56;4.10;;;2.10;;
39948;SDS011;29070;48.102;-1.652;2023-04-25T21:14:56;3.90;;;1.70;;
39948;SDS011;29070;48.102;-1.652;2023-04-25T21:19:59;3.55;;;2.15;;
39948;SDS011;29070;48.102;-1.652;2023-04-25T21:24:59;3.80;;;1.77;;
39948;SDS011;29070;48.102;-1.652;2023-04-25T21:30:05;5.00;;;2.25;;
39948;SDS011;29070;48.102;-1.652;2023-04-25T21:35:07;6.30;;;2.28;;
39948;SDS011;29070;48.102;-1.652;2023-04-25T21:40:07;6.97;;;2.28;;
39948;SDS011;29070;48.102;-1.652;2023-04-25T21:45:08;3.38;;;1.83;;
39948;SDS011;29070;48.102;-1.652;2023-04-25T21:50:09;7.65;;;2.35;;
39948;SDS011;29070;48.102;-1.652;2023-04-25T21:55:10;3.65;;;1.85;;
39948;SDS011;29070;48.102;-1.652;2023-04-25T22:00:10;3.47;;;1.65;;
39948;SDS011;29070;48.102;-1.652;2023-04-25T22:05:23;3.88;;;2.15;;
39948;SDS011;29070;48.102;-1.652;2023-04-25T22:10:25;4.28;;;2.10;;
39948;SDS011;29070;48.102;-1.652;2023-04-25T22:15:25;4.57;;;2.08;;
39948;SDS011;29070;48.102;-1.652;2023-04-25T22:20:26;7.07;;;2.42;;
39948;SDS011;29070;48.102;-1.652;2023-04-25T22:25:26;4.88;;;2.20;;
39948;SDS011;29070;48.102;-1.652;2023-04-25T22:30:27;4.35;;;2.10;;
39948;SDS011;29070;48.102;-1.652;2023-04-25T22:35:29;4.15;;;2.33;;
39948;SDS011;29070;48.102;-1.652;2023-04-25T22:40:29;5.20;;;2.13;;
39948;SDS011;29070;48.102;-1.652;2023-04-25T22:45:29;7.95;;;2.28;;
39948;SDS011;29070;48.102;-1.652;2023-04-25T22:50:31;4.75;;;2.58;;
39948;SDS011;29070;48.102;-1.652;2023-04-25T22:55:32;5.40;;;2.40;;
39948;SDS011;29070;48.102;-1.652;2023-04-25T23:00:32;3.17;;;1.88;;
39948;SDS011;29070;48.102;-1.652;2023-04-25T23:05:33;4.07;;;2.35;;
39948;SDS011;29070;48.102;-1.652;2023-04-25T23:10:33;3.90;;;2.70;;
39948;SDS011;29070;48.102;-1.652;2023-04-25T23:15:34;4.80;;;2.33;;
39948;SDS011;29070;48.102;-1.652;2023-04-25T23:20:34;4.07;;;2.47;;
39948;SDS011;29070;48.102;-1.652;2023-04-25T23:25:37;4.65;;;2.40;;
39948;SDS011;29070;48.102;-1.652;2023-04-25T23:30:41;5.03;;;2.38;;
39948;SDS011;29070;48.102;-1.652;2023-04-25T23:35:41;3.70;;;2.50;;
39948;SDS011;29070;48.102;-1.652;2023-04-25T23:40:41;3.13;;;2.30;;
39948;SDS011;29070;48.102;-1.652;2023-04-25T23:45:42;3.90;;;2.03;;
39948;SDS011;29070;48.102;-1.652;2023-04-25T23:50:45;6.20;;;2.65;;
39948;SDS011;29070;48.102;-1.652;2023-04-25T23:55:45;3.88;;;2.20;;
